sensor_id;sensor_type;location;lat;lon;timestamp;P1;durP1;ratioP1;P2;durP2;ratioP2
1074;SDS011;526;51.392;12.448;2022-11-15T00:01:34;16.83;;;5.80;;
1074;SDS011;526;51.392;12.448;2022-11-15T00:04:02;7.20;;;6.27;;
1074;SDS011;526;51.392;12.448;2022-11-15T00:06:28;9.73;;;4.30;;
1074;SDS011;526;51.392;12.448;2022-11-15T00:08:54;6.87;;;3.80;;
1074;SDS011;526;51.392;12.448;2022-11-15T00:11:22;19.70;;;9.73;;
1074;SDS011;526;51.392;12.448;2022-11-15T00:13:47;11.83;;;5.40;;
1074;SDS011;526;51.392;12.448;2022-11-15T00:16:13;3.57;;;2.90;;
1074;SDS011;526;51.392;12.448;2022-11-15T00:18:38;12.20;;;5.97;;
1074;SDS011;526;51.392;12.448;2022-11-15T00:21:05;8.40;;;3.30;;
1074;SDS011;526;51.392;12.448;2022-11-15T00:23:33;3.33;;;3.13;;
1074;SDS011;526;51.392;12.448;2022-11-15T00:25:59;4.90;;;4.40;;
1074;SDS011;526;51.392;12.448;2022-11-15T00:28:25;3.30;;;2.93;;
1074;SDS011;526;51.392;12.448;2022-11-15T00:30:51;10.00;;;3.93;;
1074;SDS011;526;51.392;12.448;2022-11-15T00:33:16;12.07;;;4.30;;
1074;SDS011;526;51.392;12.448;2022-11-15T00:35:42;12.10;;;4.80;;
1074;SDS011;526;51.392;12.448;2022-11-15T00:38:07;4.80;;;4.50;;
1074;SDS011;526;51.392;12.448;2022-11-15T00:40:33;8.53;;;4.60;;
1074;SDS011;526;51.392;12.448;2022-11-15T00:42:58;5.87;;;3.53;;
1074;SDS011;526;51.392;12.448;2022-11-15T00:45:24;6.10;;;5.23;;
1074;SDS011;526;51.392;12.448;2022-11-15T00:47:50;3.97;;;3.77;;
1074;SDS011;526;51.392;12.448;2022-11-15T00:50:16;13.67;;;5.70;;
1074;SDS011;526;51.392;12.448;2022-11-15T00:52:42;4.67;;;2.63;;
1074;SDS011;526;51.392;12.448;2022-11-15T00:55:18;7.37;;;5.13;;
1074;SDS011;526;51.392;12.448;2022-11-15T00:57:45;4.83;;;4.33;;
1074;SDS011;526;51.392;12.448;2022-11-15T01:00:11;8.40;;;4.73;;
1074;SDS011;526;51.392;12.448;2022-11-15T01:02:37;12.03;;;6.27;;
1074;SDS011;526;51.392;12.448;2022-11-15T01:05:03;10.43;;;4.47;;
1074;SDS011;526;51.392;12.448;2022-11-15T01:07:29;3.77;;;3.57;;
1074;SDS011;526;51.392;12.448;2022-11-15T01:09:54;3.60;;;3.33;;
1074;SDS011;526;51.392;12.448;2022-11-15T01:12:20;3.90;;;3.67;;
1074;SDS011;526;51.392;12.448;2022-11-15T01:14:45;8.23;;;5.80;;
1074;SDS011;526;51.392;12.448;2022-11-15T01:17:11;6.20;;;3.43;;
1074;SDS011;526;51.392;12.448;2022-11-15T01:19:36;10.03;;;4.37;;
1074;SDS011;526;51.392;12.448;2022-11-15T01:22:02;4.93;;;4.30;;
1074;SDS011;526;51.392;12.448;2022-11-15T01:24:27;7.97;;;3.40;;
1074;SDS011;526;51.392;12.448;2022-11-15T01:26:53;14.80;;;6.63;;
1074;SDS011;526;51.392;12.448;2022-11-15T01:29:18;3.50;;;2.60;;
1074;SDS011;526;51.392;12.448;2022-11-15T01:31:44;3.27;;;3.10;;
1074;SDS011;526;51.392;12.448;2022-11-15T01:34:10;4.60;;;3.37;;
1074;SDS011;526;51.392;12.448;2022-11-15T01:36:35;5.63;;;3.83;;
1074;SDS011;526;51.392;12.448;2022-11-15T01:39:01;2.97;;;2.77;;
1074;SDS011;526;51.392;12.448;2022-11-15T01:41:28;2.50;;;2.30;;
1074;SDS011;526;51.392;12.448;2022-11-15T01:43:57;7.07;;;2.93;;
1074;SDS011;526;51.392;12.448;2022-11-15T01:46:42;2.77;;;2.57;;
1074;SDS011;526;51.392;12.448;2022-11-15T01:49:11;4.13;;;3.90;;
1074;SDS011;526;51.392;12.448;2022-11-15T01:51:40;6.13;;;3.23;;
1074;SDS011;526;51.392;12.448;2022-11-15T01:54:06;2.80;;;2.60;;
1074;SDS011;526;51.392;12.448;2022-11-15T01:56:39;14.73;;;4.90;;
1074;SDS011;526;51.392;12.448;2022-11-15T01:59:13;7.80;;;4.07;;
1074;SDS011;526;51.392;12.448;2022-11-15T02:01:39;2.47;;;2.30;;
1074;SDS011;526;51.392;12.448;2022-11-15T02:04:13;11.57;;;3.53;;
1074;SDS011;526;51.392;12.448;2022-11-15T02:06:45;3.57;;;2.60;;
1074;SDS011;526;51.392;12.448;2022-11-15T02:09:13;6.20;;;3.83;;
1074;SDS011;526;51.392;12.448;2022-11-15T02:11:39;3.47;;;3.30;;
1074;SDS011;526;51.392;12.448;2022-11-15T02:14:05;8.13;;;5.07;;
1074;SDS011;526;51.392;12.448;2022-11-15T02:27:32;2.03;;;1.93;;
1074;SDS011;526;51.392;12.448;2022-11-15T02:30:18;11.57;;;3.87;;
1074;SDS011;526;51.392;12.448;2022-11-15T02:32:57;9.10;;;4.20;;
1074;SDS011;526;51.392;12.448;2022-11-15T02:40:57;4.57;;;2.40;;
1074;SDS011;526;51.392;12.448;2022-11-15T02:46:37;3.33;;;2.83;;
1074;SDS011;526;51.392;12.448;2022-11-15T02:49:26;3.13;;;2.03;;
1074;SDS011;526;51.392;12.448;2022-11-15T02:51:55;6.10;;;3.00;;
1074;SDS011;526;51.392;12.448;2022-11-15T02:54:22;13.10;;;4.53;;
1074;SDS011;526;51.392;12.448;2022-11-15T02:56:50;3.33;;;2.90;;
1074;SDS011;526;51.392;12.448;2022-11-15T03:06:43;3.97;;;2.77;;
1074;SDS011;526;51.392;12.448;2022-11-15T03:09:22;4.73;;;3.77;;
1074;SDS011;526;51.392;12.448;2022-11-15T03:12:01;3.27;;;3.07;;
1074;SDS011;526;51.392;12.448;2022-11-15T03:14:34;13.10;;;3.30;;
1074;SDS011;526;51.392;12.448;2022-11-15T03:17:19;5.13;;;2.30;;
1074;SDS011;526;51.392;12.448;2022-11-15T03:19:58;3.33;;;2.87;;
1074;SDS011;526;51.392;12.448;2022-11-15T03:22:27;7.43;;;3.20;;
1074;SDS011;526;51.392;12.448;2022-11-15T03:24:59;1.40;;;1.30;;
1074;SDS011;526;51.392;12.448;2022-11-15T03:27:30;2.33;;;2.17;;
1074;SDS011;526;51.392;12.448;2022-11-15T03:30:02;3.53;;;2.77;;
1074;SDS011;526;51.392;12.448;2022-11-15T03:32:31;4.97;;;3.63;;
1074;SDS011;526;51.392;12.448;2022-11-15T03:35:03;2.07;;;1.93;;
1074;SDS011;526;51.392;12.448;2022-11-15T03:37:40;11.03;;;5.47;;
1074;SDS011;526;51.392;12.448;2022-11-15T03:40:11;3.10;;;2.97;;
1074;SDS011;526;51.392;12.448;2022-11-15T03:42:48;2.80;;;2.60;;
1074;SDS011;526;51.392;12.448;2022-11-15T03:45:28;17.90;;;3.30;;
1074;SDS011;526;51.392;12.448;2022-11-15T03:48:09;2.67;;;2.47;;
1074;SDS011;526;51.392;12.448;2022-11-15T03:50:37;1.60;;;1.50;;
1074;SDS011;526;51.392;12.448;2022-11-15T03:53:03;4.40;;;2.73;;
1074;SDS011;526;51.392;12.448;2022-11-15T03:55:31;4.10;;;2.90;;
1074;SDS011;526;51.392;12.448;2022-11-15T03:57:57;4.53;;;3.97;;
1074;SDS011;526;51.392;12.448;2022-11-15T04:00:24;8.87;;;5.33;;
1074;SDS011;526;51.392;12.448;2022-11-15T04:02:50;2.10;;;1.57;;
1074;SDS011;526;51.392;12.448;2022-11-15T04:05:15;8.77;;;4.60;;
1074;SDS011;526;51.392;12.448;2022-11-15T04:07:41;15.33;;;5.97;;
1074;SDS011;526;51.392;12.448;2022-11-15T04:10:07;9.17;;;4.07;;
1074;SDS011;526;51.392;12.448;2022-11-15T04:12:36;3.03;;;2.00;;
1074;SDS011;526;51.392;12.448;2022-11-15T04:15:07;2.13;;;2.00;;
1074;SDS011;526;51.392;12.448;2022-11-15T04:17:35;3.53;;;2.27;;
1074;SDS011;526;51.392;12.448;2022-11-15T04:20:04;2.17;;;1.77;;
1074;SDS011;526;51.392;12.448;2022-11-15T04:22:51;7.33;;;2.40;;
1074;SDS011;526;51.392;12.448;2022-11-15T04:25:36;2.43;;;2.23;;
1074;SDS011;526;51.392;12.448;2022-11-15T04:28:02;7.73;;;3.37;;
1074;SDS011;526;51.392;12.448;2022-11-15T04:30:27;5.20;;;2.87;;
1074;SDS011;526;51.392;12.448;2022-11-15T04:32:53;8.00;;;5.27;;
1074;SDS011;526;51.392;12.448;2022-11-15T04:35:18;5.07;;;3.53;;
1074;SDS011;526;51.392;12.448;2022-11-15T04:37:44;1.77;;;1.73;;
1074;SDS011;526;51.392;12.448;2022-11-15T04:40:10;8.43;;;2.80;;
1074;SDS011;526;51.392;12.448;2022-11-15T04:42:36;2.60;;;2.40;;
1074;SDS011;526;51.392;12.448;2022-11-15T04:45:01;6.60;;;2.77;;
1074;SDS011;526;51.392;12.448;2022-11-15T04:47:27;4.63;;;4.10;;
1074;SDS011;526;51.392;12.448;2022-11-15T04:49:54;4.27;;;3.37;;
1074;SDS011;526;51.392;12.448;2022-11-15T04:52:20;4.00;;;2.20;;
1074;SDS011;526;51.392;12.448;2022-11-15T04:54:45;2.97;;;2.70;;
1074;SDS011;526;51.392;12.448;2022-11-15T04:57:11;2.10;;;1.83;;
1074;SDS011;526;51.392;12.448;2022-11-15T04:59:36;3.00;;;1.50;;
1074;SDS011;526;51.392;12.448;2022-11-15T05:02:02;3.00;;;2.80;;
1074;SDS011;526;51.392;12.448;2022-11-15T05:04:27;5.70;;;2.70;;
1074;SDS011;526;51.392;12.448;2022-11-15T05:06:53;2.00;;;1.87;;
1074;SDS011;526;51.392;12.448;2022-11-15T05:09:18;4.50;;;3.73;;
1074;SDS011;526;51.392;12.448;2022-11-15T05:11:45;1.90;;;1.80;;
1074;SDS011;526;51.392;12.448;2022-11-15T05:14:11;3.33;;;2.60;;
1074;SDS011;526;51.392;12.448;2022-11-15T05:16:37;5.53;;;2.60;;
1074;SDS011;526;51.392;12.448;2022-11-15T05:19:03;4.30;;;2.90;;
1074;SDS011;526;51.392;12.448;2022-11-15T05:21:29;4.50;;;2.90;;
1074;SDS011;526;51.392;12.448;2022-11-15T05:23:55;3.13;;;1.50;;
1074;SDS011;526;51.392;12.448;2022-11-15T05:26:20;5.37;;;3.00;;
1074;SDS011;526;51.392;12.448;2022-11-15T05:28:46;2.77;;;2.57;;
1074;SDS011;526;51.392;12.448;2022-11-15T05:31:13;4.77;;;3.70;;
1074;SDS011;526;51.392;12.448;2022-11-15T05:33:40;3.77;;;2.97;;
1074;SDS011;526;51.392;12.448;2022-11-15T05:36:07;3.70;;;2.73;;
1074;SDS011;526;51.392;12.448;2022-11-15T05:38:41;2.70;;;2.50;;
1074;SDS011;526;51.392;12.448;2022-11-15T05:41:07;6.40;;;3.37;;
1074;SDS011;526;51.392;12.448;2022-11-15T05:43:33;5.23;;;3.63;;
1074;SDS011;526;51.392;12.448;2022-11-15T05:46:01;5.27;;;3.40;;
1074;SDS011;526;51.392;12.448;2022-11-15T05:48:28;4.10;;;2.80;;
1074;SDS011;526;51.392;12.448;2022-11-15T05:50:53;3.27;;;3.07;;
1074;SDS011;526;51.392;12.448;2022-11-15T05:53:19;2.23;;;2.07;;
1074;SDS011;526;51.392;12.448;2022-11-15T05:55:47;3.77;;;3.57;;
1074;SDS011;526;51.392;12.448;2022-11-15T05:58:13;5.53;;;2.13;;
1074;SDS011;526;51.392;12.448;2022-11-15T06:00:39;4.40;;;2.63;;
1074;SDS011;526;51.392;12.448;2022-11-15T06:03:05;3.50;;;3.30;;
1074;SDS011;526;51.392;12.448;2022-11-15T06:05:30;3.37;;;2.50;;
1074;SDS011;526;51.392;12.448;2022-11-15T06:07:59;2.07;;;1.90;;
1074;SDS011;526;51.392;12.448;2022-11-15T06:10:24;10.23;;;2.43;;
1074;SDS011;526;51.392;12.448;2022-11-15T06:12:59;3.27;;;2.97;;
1074;SDS011;526;51.392;12.448;2022-11-15T06:15:27;2.90;;;2.50;;
1074;SDS011;526;51.392;12.448;2022-11-15T06:17:56;1.47;;;1.10;;
1074;SDS011;526;51.392;12.448;2022-11-15T06:20:26;3.00;;;2.80;;
1074;SDS011;526;51.392;12.448;2022-11-15T06:23:10;2.77;;;2.27;;
1074;SDS011;526;51.392;12.448;2022-11-15T06:25:36;2.00;;;1.73;;
1074;SDS011;526;51.392;12.448;2022-11-15T06:28:09;8.13;;;2.87;;
1074;SDS011;526;51.392;12.448;2022-11-15T06:30:35;2.37;;;2.17;;
1074;SDS011;526;51.392;12.448;2022-11-15T06:33:01;5.13;;;4.00;;
1074;SDS011;526;51.392;12.448;2022-11-15T06:35:37;6.33;;;5.23;;
1074;SDS011;526;51.392;12.448;2022-11-15T06:38:04;5.37;;;2.13;;
1074;SDS011;526;51.392;12.448;2022-11-15T06:40:32;2.80;;;2.60;;
1074;SDS011;526;51.392;12.448;2022-11-15T06:42:59;5.20;;;4.17;;
1074;SDS011;526;51.392;12.448;2022-11-15T06:45:25;3.37;;;3.00;;
1074;SDS011;526;51.392;12.448;2022-11-15T06:47:51;3.47;;;3.27;;
1074;SDS011;526;51.392;12.448;2022-11-15T06:50:16;1.63;;;1.57;;
1074;SDS011;526;51.392;12.448;2022-11-15T06:52:42;8.73;;;2.03;;
1074;SDS011;526;51.392;12.448;2022-11-15T06:55:07;1.97;;;1.53;;
1074;SDS011;526;51.392;12.448;2022-11-15T06:57:33;2.63;;;2.43;;
1074;SDS011;526;51.392;12.448;2022-11-15T06:59:59;1.83;;;1.70;;
1074;SDS011;526;51.392;12.448;2022-11-15T07:02:25;2.23;;;2.07;;
1074;SDS011;526;51.392;12.448;2022-11-15T07:04:50;3.47;;;3.27;;
1074;SDS011;526;51.392;12.448;2022-11-15T07:07:16;2.40;;;2.20;;
1074;SDS011;526;51.392;12.448;2022-11-15T07:09:41;3.33;;;2.47;;
1074;SDS011;526;51.392;12.448;2022-11-15T07:12:09;3.20;;;2.80;;
1074;SDS011;526;51.392;12.448;2022-11-15T07:14:35;1.73;;;1.63;;
1074;SDS011;526;51.392;12.448;2022-11-15T07:17:02;5.13;;;2.47;;
1074;SDS011;526;51.392;12.448;2022-11-15T07:19:28;9.07;;;5.13;;
1074;SDS011;526;51.392;12.448;2022-11-15T07:21:54;4.90;;;2.20;;
1074;SDS011;526;51.392;12.448;2022-11-15T07:24:19;2.57;;;2.10;;
1074;SDS011;526;51.392;12.448;2022-11-15T07:26:45;8.83;;;2.47;;
1074;SDS011;526;51.392;12.448;2022-11-15T07:29:11;4.53;;;2.70;;
1074;SDS011;526;51.392;12.448;2022-11-15T07:31:36;5.10;;;1.90;;
1074;SDS011;526;51.392;12.448;2022-11-15T07:34:02;2.53;;;2.33;;
1074;SDS011;526;51.392;12.448;2022-11-15T07:36:28;8.10;;;4.10;;
1074;SDS011;526;51.392;12.448;2022-11-15T07:38:54;4.57;;;2.70;;
1074;SDS011;526;51.392;12.448;2022-11-15T07:41:19;6.10;;;3.30;;
1074;SDS011;526;51.392;12.448;2022-11-15T07:43:45;4.30;;;3.53;;
1074;SDS011;526;51.392;12.448;2022-11-15T07:46:10;3.13;;;2.90;;
1074;SDS011;526;51.392;12.448;2022-11-15T07:52:00;2.50;;;2.30;;
1074;SDS011;526;51.392;12.448;2022-11-15T07:59:01;7.60;;;5.07;;
1074;SDS011;526;51.392;12.448;2022-11-15T08:07:01;3.83;;;2.30;;
1074;SDS011;526;51.392;12.448;2022-11-15T08:09:29;4.30;;;3.80;;
1074;SDS011;526;51.392;12.448;2022-11-15T08:12:01;5.87;;;2.70;;
1074;SDS011;526;51.392;12.448;2022-11-15T08:14:39;3.10;;;2.90;;
1074;SDS011;526;51.392;12.448;2022-11-15T08:17:10;6.63;;;3.20;;
1074;SDS011;526;51.392;12.448;2022-11-15T08:19:39;3.40;;;3.23;;
1074;SDS011;526;51.392;12.448;2022-11-15T08:22:50;2.23;;;2.03;;
1074;SDS011;526;51.392;12.448;2022-11-15T08:25:18;1.70;;;1.60;;
1074;SDS011;526;51.392;12.448;2022-11-15T08:28:01;4.33;;;3.50;;
1074;SDS011;526;51.392;12.448;2022-11-15T08:30:29;2.60;;;2.40;;
1074;SDS011;526;51.392;12.448;2022-11-15T08:32:58;3.40;;;3.20;;
1074;SDS011;526;51.392;12.448;2022-11-15T08:35:29;5.50;;;3.43;;
1074;SDS011;526;51.392;12.448;2022-11-15T08:38:04;4.03;;;3.30;;
1074;SDS011;526;51.392;12.448;2022-11-15T08:44:11;3.37;;;2.73;;
1074;SDS011;526;51.392;12.448;2022-11-15T08:46:39;4.40;;;2.23;;
1074;SDS011;526;51.392;12.448;2022-11-15T08:49:12;6.00;;;3.93;;
1074;SDS011;526;51.392;12.448;2022-11-15T08:51:51;2.90;;;2.73;;
1074;SDS011;526;51.392;12.448;2022-11-15T08:57:11;2.70;;;1.90;;
1074;SDS011;526;51.392;12.448;2022-11-15T08:59:51;1.90;;;1.80;;
1074;SDS011;526;51.392;12.448;2022-11-15T09:02:19;4.00;;;2.17;;
1074;SDS011;526;51.392;12.448;2022-11-15T09:04:49;3.93;;;2.80;;
1074;SDS011;526;51.392;12.448;2022-11-15T09:08:20;4.27;;;3.57;;
1074;SDS011;526;51.392;12.448;2022-11-15T09:13:40;4.40;;;2.43;;
1074;SDS011;526;51.392;12.448;2022-11-15T09:16:11;2.23;;;2.07;;
1074;SDS011;526;51.392;12.448;2022-11-15T09:18:40;2.37;;;2.17;;
1074;SDS011;526;51.392;12.448;2022-11-15T09:21:10;1.93;;;1.60;;
1074;SDS011;526;51.392;12.448;2022-11-15T09:23:41;2.00;;;1.50;;
1074;SDS011;526;51.392;12.448;2022-11-15T09:26:20;2.80;;;1.90;;
1074;SDS011;526;51.392;12.448;2022-11-15T09:28:52;4.13;;;2.87;;
1074;SDS011;526;51.392;12.448;2022-11-15T09:34:09;3.43;;;1.97;;
1074;SDS011;526;51.392;12.448;2022-11-15T09:37:00;2.37;;;2.23;;
1074;SDS011;526;51.392;12.448;2022-11-15T09:39:29;4.70;;;2.47;;
1074;SDS011;526;51.392;12.448;2022-11-15T09:42:38;5.00;;;3.23;;
1074;SDS011;526;51.392;12.448;2022-11-15T09:47:49;7.10;;;3.20;;
1074;SDS011;526;51.392;12.448;2022-11-15T09:50:44;3.43;;;2.10;;
1074;SDS011;526;51.392;12.448;2022-11-15T09:53:19;4.00;;;1.80;;
1074;SDS011;526;51.392;12.448;2022-11-15T09:56:00;2.50;;;2.30;;
1074;SDS011;526;51.392;12.448;2022-11-15T09:58:47;2.83;;;2.13;;
1074;SDS011;526;51.392;12.448;2022-11-15T10:04:05;4.07;;;1.47;;
1074;SDS011;526;51.392;12.448;2022-11-15T10:06:31;4.97;;;2.83;;
1074;SDS011;526;51.392;12.448;2022-11-15T10:09:03;2.50;;;2.30;;
1074;SDS011;526;51.392;12.448;2022-11-15T10:11:36;1.97;;;1.83;;
1074;SDS011;526;51.392;12.448;2022-11-15T10:14:05;2.10;;;1.77;;
1074;SDS011;526;51.392;12.448;2022-11-15T10:24:30;7.40;;;2.20;;
1074;SDS011;526;51.392;12.448;2022-11-15T10:27:09;1.60;;;1.50;;
1074;SDS011;526;51.392;12.448;2022-11-15T10:29:42;1.97;;;1.87;;
1074;SDS011;526;51.392;12.448;2022-11-15T10:32:10;2.00;;;1.93;;
1074;SDS011;526;51.392;12.448;2022-11-15T10:34:39;3.27;;;2.17;;
1074;SDS011;526;51.392;12.448;2022-11-15T10:37:05;4.17;;;1.70;;
1074;SDS011;526;51.392;12.448;2022-11-15T10:39:30;4.60;;;3.20;;
1074;SDS011;526;51.392;12.448;2022-11-15T10:41:58;4.10;;;2.53;;
1074;SDS011;526;51.392;12.448;2022-11-15T10:44:41;2.13;;;1.83;;
1074;SDS011;526;51.392;12.448;2022-11-15T10:50:05;1.60;;;1.40;;
1074;SDS011;526;51.392;12.448;2022-11-15T10:52:49;1.70;;;1.60;;
1074;SDS011;526;51.392;12.448;2022-11-15T10:57:47;4.10;;;2.47;;
1074;SDS011;526;51.392;12.448;2022-11-15T11:05:41;2.40;;;2.20;;
1074;SDS011;526;51.392;12.448;2022-11-15T11:10:34;2.03;;;1.47;;
1074;SDS011;526;51.392;12.448;2022-11-15T11:16:41;1.77;;;1.67;;
1074;SDS011;526;51.392;12.448;2022-11-15T11:21:46;1.90;;;1.53;;
1074;SDS011;526;51.392;12.448;2022-11-15T11:27:28;1.73;;;1.63;;
1074;SDS011;526;51.392;12.448;2022-11-15T11:30:21;2.77;;;2.40;;
1074;SDS011;526;51.392;12.448;2022-11-15T11:57:46;2.73;;;1.93;;
1074;SDS011;526;51.392;12.448;2022-11-15T12:00:23;2.50;;;1.80;;
1074;SDS011;526;51.392;12.448;2022-11-15T12:05:47;2.53;;;2.13;;
1074;SDS011;526;51.392;12.448;2022-11-15T12:13:48;1.67;;;1.57;;
1074;SDS011;526;51.392;12.448;2022-11-15T12:16:22;2.13;;;2.00;;
1074;SDS011;526;51.392;12.448;2022-11-15T12:18:53;3.67;;;2.40;;
1074;SDS011;526;51.392;12.448;2022-11-15T12:24:02;10.07;;;3.13;;
1074;SDS011;526;51.392;12.448;2022-11-15T12:26:36;2.07;;;1.50;;
1074;SDS011;526;51.392;12.448;2022-11-15T12:29:23;1.93;;;1.83;;
1074;SDS011;526;51.392;12.448;2022-11-15T12:32:04;1.67;;;1.60;;
1074;SDS011;526;51.392;12.448;2022-11-15T12:34:43;1.40;;;1.37;;
1074;SDS011;526;51.392;12.448;2022-11-15T12:42:41;1.53;;;1.40;;
1074;SDS011;526;51.392;12.448;2022-11-15T13:06:41;1.67;;;1.43;;
1074;SDS011;526;51.392;12.448;2022-11-15T13:11:59;1.97;;;1.57;;
1074;SDS011;526;51.392;12.448;2022-11-15T13:17:19;1.50;;;1.40;;
1074;SDS011;526;51.392;12.448;2022-11-15T13:20:32;1.87;;;1.77;;
1074;SDS011;526;51.392;12.448;2022-11-15T13:22:42;2.30;;;2.00;;
1074;SDS011;526;51.392;12.448;2022-11-15T13:27:47;1.40;;;1.37;;
1074;SDS011;526;51.392;12.448;2022-11-15T13:30:16;1.20;;;1.10;;
1074;SDS011;526;51.392;12.448;2022-11-15T13:32:45;2.03;;;1.93;;
1074;SDS011;526;51.392;12.448;2022-11-15T13:37:54;1.70;;;1.27;;
1074;SDS011;526;51.392;12.448;2022-11-15T13:40:25;2.23;;;1.93;;
1074;SDS011;526;51.392;12.448;2022-11-15T13:42:59;1.67;;;1.53;;
1074;SDS011;526;51.392;12.448;2022-11-15T13:45:25;2.50;;;2.23;;
1074;SDS011;526;51.392;12.448;2022-11-15T13:47:55;1.57;;;1.50;;
1074;SDS011;526;51.392;12.448;2022-11-15T13:50:24;2.73;;;1.40;;
1074;SDS011;526;51.392;12.448;2022-11-15T13:52:52;2.40;;;2.20;;
1074;SDS011;526;51.392;12.448;2022-11-15T13:55:21;3.90;;;1.70;;
1074;SDS011;526;51.392;12.448;2022-11-15T13:57:50;1.23;;;1.10;;
1074;SDS011;526;51.392;12.448;2022-11-15T14:06:06;1.97;;;1.87;;
1074;SDS011;526;51.392;12.448;2022-11-15T14:08:41;1.90;;;1.50;;
1074;SDS011;526;51.392;12.448;2022-11-15T14:11:22;1.60;;;1.50;;
1074;SDS011;526;51.392;12.448;2022-11-15T14:16:36;3.53;;;1.93;;
1074;SDS011;526;51.392;12.448;2022-11-15T14:19:51;2.50;;;1.53;;
1074;SDS011;526;51.392;12.448;2022-11-15T14:24:33;2.03;;;1.50;;
1074;SDS011;526;51.392;12.448;2022-11-15T14:29:48;1.00;;;0.90;;
1074;SDS011;526;51.392;12.448;2022-11-15T14:32:15;3.30;;;1.70;;
1074;SDS011;526;51.392;12.448;2022-11-15T14:34:46;2.73;;;1.73;;
1074;SDS011;526;51.392;12.448;2022-11-15T14:37:18;6.00;;;1.57;;
1074;SDS011;526;51.392;12.448;2022-11-15T14:39:52;1.83;;;1.53;;
1074;SDS011;526;51.392;12.448;2022-11-15T14:42:19;1.70;;;1.40;;
1074;SDS011;526;51.392;12.448;2022-11-15T14:44:45;3.73;;;1.87;;
1074;SDS011;526;51.392;12.448;2022-11-15T14:47:11;2.00;;;1.93;;
1074;SDS011;526;51.392;12.448;2022-11-15T14:49:37;2.60;;;1.80;;
1074;SDS011;526;51.392;12.448;2022-11-15T14:52:07;3.33;;;2.17;;
1074;SDS011;526;51.392;12.448;2022-11-15T14:54:41;2.73;;;2.50;;
1074;SDS011;526;51.392;12.448;2022-11-15T14:57:07;2.53;;;2.20;;
1074;SDS011;526;51.392;12.448;2022-11-15T14:59:32;2.60;;;2.03;;
1074;SDS011;526;51.392;12.448;2022-11-15T15:01:58;3.73;;;2.37;;
1074;SDS011;526;51.392;12.448;2022-11-15T15:04:24;5.80;;;3.40;;
1074;SDS011;526;51.392;12.448;2022-11-15T15:06:49;1.53;;;1.50;;
1074;SDS011;526;51.392;12.448;2022-11-15T15:09:15;2.30;;;2.10;;
1074;SDS011;526;51.392;12.448;2022-11-15T15:11:40;3.00;;;2.23;;
1074;SDS011;526;51.392;12.448;2022-11-15T15:14:07;11.30;;;2.13;;
1074;SDS011;526;51.392;12.448;2022-11-15T15:16:33;9.07;;;2.23;;
1074;SDS011;526;51.392;12.448;2022-11-15T15:18:58;4.40;;;2.03;;
1074;SDS011;526;51.392;12.448;2022-11-15T15:21:27;11.43;;;2.97;;
1074;SDS011;526;51.392;12.448;2022-11-15T15:23:53;2.23;;;1.90;;
1074;SDS011;526;51.392;12.448;2022-11-15T15:26:19;3.77;;;2.77;;
1074;SDS011;526;51.392;12.448;2022-11-15T15:28:45;4.07;;;2.70;;
1074;SDS011;526;51.392;12.448;2022-11-15T15:31:13;9.80;;;3.50;;
1074;SDS011;526;51.392;12.448;2022-11-15T15:33:39;23.90;;;4.17;;
1074;SDS011;526;51.392;12.448;2022-11-15T15:36:07;8.57;;;5.13;;
1074;SDS011;526;51.392;12.448;2022-11-15T15:38:37;8.70;;;4.70;;
1074;SDS011;526;51.392;12.448;2022-11-15T15:41:06;4.60;;;4.30;;
1074;SDS011;526;51.392;12.448;2022-11-15T15:43:35;3.57;;;3.13;;
1074;SDS011;526;51.392;12.448;2022-11-15T15:46:01;6.93;;;3.80;;
1074;SDS011;526;51.392;12.448;2022-11-15T15:48:27;2.63;;;2.43;;
1074;SDS011;526;51.392;12.448;2022-11-15T15:50:52;7.60;;;3.40;;
1074;SDS011;526;51.392;12.448;2022-11-15T15:53:18;4.20;;;2.57;;
1074;SDS011;526;51.392;12.448;2022-11-15T15:55:43;3.13;;;2.97;;
1074;SDS011;526;51.392;12.448;2022-11-15T15:58:09;4.67;;;1.93;;
1074;SDS011;526;51.392;12.448;2022-11-15T16:00:35;6.60;;;4.50;;
1074;SDS011;526;51.392;12.448;2022-11-15T16:03:01;8.20;;;4.17;;
1074;SDS011;526;51.392;12.448;2022-11-15T16:05:27;3.70;;;3.10;;
1074;SDS011;526;51.392;12.448;2022-11-15T16:07:53;5.33;;;2.83;;
1074;SDS011;526;51.392;12.448;2022-11-15T16:10:28;4.83;;;2.90;;
1074;SDS011;526;51.392;12.448;2022-11-15T16:12:56;15.23;;;3.50;;
1074;SDS011;526;51.392;12.448;2022-11-15T16:15:23;4.17;;;2.90;;
1074;SDS011;526;51.392;12.448;2022-11-15T16:17:55;10.33;;;4.37;;
1074;SDS011;526;51.392;12.448;2022-11-15T16:22:56;4.60;;;3.37;;
1074;SDS011;526;51.392;12.448;2022-11-15T16:25:21;8.57;;;3.20;;
1074;SDS011;526;51.392;12.448;2022-11-15T16:27:47;6.97;;;4.07;;
1074;SDS011;526;51.392;12.448;2022-11-15T16:30:14;5.53;;;3.43;;
1074;SDS011;526;51.392;12.448;2022-11-15T16:32:41;4.63;;;3.00;;
1074;SDS011;526;51.392;12.448;2022-11-15T16:35:10;5.73;;;3.27;;
1074;SDS011;526;51.392;12.448;2022-11-15T16:37:37;10.30;;;3.60;;
1074;SDS011;526;51.392;12.448;2022-11-15T16:40:05;5.53;;;5.10;;
1074;SDS011;526;51.392;12.448;2022-11-15T16:42:49;4.10;;;1.80;;
1074;SDS011;526;51.392;12.448;2022-11-15T16:45:17;3.13;;;2.80;;
1074;SDS011;526;51.392;12.448;2022-11-15T16:47:45;5.43;;;3.70;;
1074;SDS011;526;51.392;12.448;2022-11-15T16:50:16;4.80;;;3.70;;
1074;SDS011;526;51.392;12.448;2022-11-15T16:52:48;5.17;;;3.70;;
1074;SDS011;526;51.392;12.448;2022-11-15T16:55:14;6.67;;;4.27;;
1074;SDS011;526;51.392;12.448;2022-11-15T16:57:40;6.60;;;4.70;;
1074;SDS011;526;51.392;12.448;2022-11-15T17:00:05;3.53;;;3.33;;
1074;SDS011;526;51.392;12.448;2022-11-15T17:02:33;6.60;;;5.40;;
1074;SDS011;526;51.392;12.448;2022-11-15T17:04:59;6.30;;;4.07;;
1074;SDS011;526;51.392;12.448;2022-11-15T17:07:24;6.50;;;3.80;;
1074;SDS011;526;51.392;12.448;2022-11-15T17:09:50;3.63;;;3.47;;
1074;SDS011;526;51.392;12.448;2022-11-15T17:12:15;3.20;;;3.00;;
1074;SDS011;526;51.392;12.448;2022-11-15T17:14:41;8.37;;;5.60;;
1074;SDS011;526;51.392;12.448;2022-11-15T17:17:08;8.23;;;5.03;;
1074;SDS011;526;51.392;12.448;2022-11-15T17:22:37;5.60;;;5.30;;
1074;SDS011;526;51.392;12.448;2022-11-15T17:25:11;7.40;;;5.07;;
1074;SDS011;526;51.392;12.448;2022-11-15T17:27:37;6.90;;;6.30;;
1074;SDS011;526;51.392;12.448;2022-11-15T17:30:06;7.03;;;5.77;;
1074;SDS011;526;51.392;12.448;2022-11-15T17:32:44;10.00;;;4.57;;
1074;SDS011;526;51.392;12.448;2022-11-15T17:35:11;8.73;;;4.50;;
1074;SDS011;526;51.392;12.448;2022-11-15T17:37:37;10.20;;;6.03;;
1074;SDS011;526;51.392;12.448;2022-11-15T17:40:03;6.20;;;4.50;;
1074;SDS011;526;51.392;12.448;2022-11-15T17:42:29;5.73;;;5.43;;
1074;SDS011;526;51.392;12.448;2022-11-15T17:44:54;10.87;;;6.30;;
1074;SDS011;526;51.392;12.448;2022-11-15T17:47:20;11.00;;;8.33;;
1074;SDS011;526;51.392;12.448;2022-11-15T17:49:45;21.77;;;8.53;;
1074;SDS011;526;51.392;12.448;2022-11-15T17:52:11;18.83;;;5.97;;
1074;SDS011;526;51.392;12.448;2022-11-15T17:54:37;10.80;;;5.73;;
1074;SDS011;526;51.392;12.448;2022-11-15T17:57:02;12.83;;;6.00;;
1074;SDS011;526;51.392;12.448;2022-11-15T17:59:37;8.03;;;7.60;;
1074;SDS011;526;51.392;12.448;2022-11-15T18:08:53;9.60;;;6.90;;
1074;SDS011;526;51.392;12.448;2022-11-15T18:11:51;25.00;;;9.03;;
1074;SDS011;526;51.392;12.448;2022-11-15T18:14:25;19.67;;;10.63;;
1074;SDS011;526;51.392;12.448;2022-11-15T18:17:13;19.97;;;9.90;;
1074;SDS011;526;51.392;12.448;2022-11-15T18:20:00;20.90;;;10.83;;
1074;SDS011;526;51.392;12.448;2022-11-15T18:33:29;60.30;;;29.53;;
1074;SDS011;526;51.392;12.448;2022-11-15T18:36:02;86.40;;;36.37;;
1074;SDS011;526;51.392;12.448;2022-11-15T18:38:30;59.30;;;28.47;;
1074;SDS011;526;51.392;12.448;2022-11-15T18:41:17;24.77;;;9.40;;
1074;SDS011;526;51.392;12.448;2022-11-15T18:43:44;13.97;;;6.70;;
1074;SDS011;526;51.392;12.448;2022-11-15T18:51:18;6.47;;;5.77;;
1074;SDS011;526;51.392;12.448;2022-11-15T18:53:45;6.77;;;5.93;;